sensor_id;sensor_type;location;lat;lon;timestamp;P1;durP1;ratioP1;P2;durP2;ratioP2
47289;SDS011;33197;52.524;13.444;2022-10-23T00:01:50;10.45;;;4.28;;
47289;SDS011;33197;52.524;13.444;2022-10-23T00:04:19;9.32;;;3.83;;
47289;SDS011;33197;52.524;13.444;2022-10-23T00:06:47;11.23;;;3.85;;
47289;SDS011;33197;52.524;13.444;2022-10-23T00:09:17;7.80;;;4.07;;
47289;SDS011;33197;52.524;13.444;2022-10-23T00:11:46;9.13;;;3.70;;
47289;SDS011;33197;52.524;13.444;2022-10-23T00:14:14;8.32;;;3.60;;
47289;SDS011;33197;52.524;13.444;2022-10-23T00:16:41;10.30;;;3.92;;
47289;SDS011;33197;52.524;13.444;2022-10-23T00:19:09;7.88;;;4.20;;
47289;SDS011;33197;52.524;13.444;2022-10-23T00:21:36;12.13;;;4.25;;
47289;SDS011;33197;52.524;13.444;2022-10-23T00:24:03;9.02;;;3.97;;
47289;SDS011;33197;52.524;13.444;2022-10-23T00:26:31;10.18;;;4.15;;
47289;SDS011;33197;52.524;13.444;2022-10-23T00:28:58;10.32;;;4.15;;
47289;SDS011;33197;52.524;13.444;2022-10-23T00:31:25;9.27;;;4.82;;
47289;SDS011;33197;52.524;13.444;2022-10-23T00:33:52;7.75;;;4.47;;
47289;SDS011;33197;52.524;13.444;2022-10-23T00:36:19;10.07;;;3.97;;
47289;SDS011;33197;52.524;13.444;2022-10-23T00:38:47;9.98;;;4.57;;
47289;SDS011;33197;52.524;13.444;2022-10-23T00:41:22;10.35;;;4.72;;
47289;SDS011;33197;52.524;13.444;2022-10-23T00:46:57;13.32;;;3.60;;
47289;SDS011;33197;52.524;13.444;2022-10-23T00:49:25;10.85;;;4.65;;
47289;SDS011;33197;52.524;13.444;2022-10-23T00:51:58;9.65;;;4.18;;
47289;SDS011;33197;52.524;13.444;2022-10-23T00:54:28;8.98;;;4.00;;
47289;SDS011;33197;52.524;13.444;2022-10-23T00:57:01;10.02;;;4.40;;
47289;SDS011;33197;52.524;13.444;2022-10-23T00:59:31;7.47;;;4.22;;
47289;SDS011;33197;52.524;13.444;2022-10-23T01:01:59;11.75;;;4.57;;
47289;SDS011;33197;52.524;13.444;2022-10-23T01:04:27;11.95;;;4.60;;
47289;SDS011;33197;52.524;13.444;2022-10-23T01:09:27;11.10;;;4.13;;
47289;SDS011;33197;52.524;13.444;2022-10-23T01:12:01;9.80;;;4.10;;
47289;SDS011;33197;52.524;13.444;2022-10-23T01:17:19;9.98;;;3.70;;
47289;SDS011;33197;52.524;13.444;2022-10-23T01:20:53;12.82;;;4.40;;
47289;SDS011;33197;52.524;13.444;2022-10-23T01:23:28;9.02;;;4.22;;
47289;SDS011;33197;52.524;13.444;2022-10-23T01:28:47;7.28;;;3.67;;
47289;SDS011;33197;52.524;13.444;2022-10-23T01:31:19;8.40;;;4.03;;
47289;SDS011;33197;52.524;13.444;2022-10-23T01:33:53;9.60;;;3.42;;
47289;SDS011;33197;52.524;13.444;2022-10-23T01:36:24;7.53;;;3.95;;
47289;SDS011;33197;52.524;13.444;2022-10-23T01:38:54;8.10;;;3.65;;
47289;SDS011;33197;52.524;13.444;2022-10-23T01:41:43;6.95;;;3.72;;
47289;SDS011;33197;52.524;13.444;2022-10-23T01:44:14;10.88;;;3.80;;
47289;SDS011;33197;52.524;13.444;2022-10-23T01:46:46;9.23;;;4.20;;
47289;SDS011;33197;52.524;13.444;2022-10-23T01:49:15;6.07;;;4.00;;
47289;SDS011;33197;52.524;13.444;2022-10-23T01:51:44;8.63;;;4.47;;
47289;SDS011;33197;52.524;13.444;2022-10-23T01:54:14;9.35;;;4.22;;
47289;SDS011;33197;52.524;13.444;2022-10-23T01:56:44;8.30;;;4.05;;
47289;SDS011;33197;52.524;13.444;2022-10-23T01:59:13;6.63;;;4.13;;
47289;SDS011;33197;52.524;13.444;2022-10-23T02:01:45;11.82;;;4.80;;
47289;SDS011;33197;52.524;13.444;2022-10-23T02:04:14;7.80;;;4.07;;
47289;SDS011;33197;52.524;13.444;2022-10-23T02:06:44;8.77;;;4.32;;
47289;SDS011;33197;52.524;13.444;2022-10-23T02:09:12;10.25;;;4.65;;
47289;SDS011;33197;52.524;13.444;2022-10-23T02:11:44;8.10;;;4.55;;
47289;SDS011;33197;52.524;13.444;2022-10-23T02:14:25;10.10;;;4.40;;
47289;SDS011;33197;52.524;13.444;2022-10-23T02:23:21;13.65;;;4.95;;
47289;SDS011;33197;52.524;13.444;2022-10-23T02:25:55;9.82;;;4.60;;
47289;SDS011;33197;52.524;13.444;2022-10-23T02:28:27;9.30;;;4.20;;
47289;SDS011;33197;52.524;13.444;2022-10-23T02:31:00;10.63;;;5.28;;
47289;SDS011;33197;52.524;13.444;2022-10-23T02:33:28;13.35;;;5.55;;
47289;SDS011;33197;52.524;13.444;2022-10-23T02:35:56;10.50;;;4.75;;
47289;SDS011;33197;52.524;13.444;2022-10-23T02:38:28;9.68;;;4.13;;
47289;SDS011;33197;52.524;13.444;2022-10-23T02:43:36;10.73;;;5.20;;
47289;SDS011;33197;52.524;13.444;2022-10-23T02:46:23;8.38;;;4.75;;
47289;SDS011;33197;52.524;13.444;2022-10-23T02:49:07;5.85;;;3.92;;
47289;SDS011;33197;52.524;13.444;2022-10-23T02:54:42;8.15;;;5.43;;
47289;SDS011;33197;52.524;13.444;2022-10-23T02:57:18;8.20;;;4.57;;
47289;SDS011;33197;52.524;13.444;2022-10-23T03:00:00;9.75;;;5.15;;
47289;SDS011;33197;52.524;13.444;2022-10-23T03:02:40;11.18;;;5.00;;
47289;SDS011;33197;52.524;13.444;2022-10-23T03:05:47;7.78;;;4.40;;
47289;SDS011;33197;52.524;13.444;2022-10-23T03:08:14;9.75;;;5.00;;
47289;SDS011;33197;52.524;13.444;2022-10-23T03:10:41;9.55;;;4.90;;
47289;SDS011;33197;52.524;13.444;2022-10-23T03:13:09;7.70;;;4.57;;
47289;SDS011;33197;52.524;13.444;2022-10-23T03:15:36;7.85;;;4.72;;
47289;SDS011;33197;52.524;13.444;2022-10-23T03:18:04;10.07;;;4.50;;
47289;SDS011;33197;52.524;13.444;2022-10-23T03:20:31;8.30;;;4.95;;
47289;SDS011;33197;52.524;13.444;2022-10-23T03:22:58;9.32;;;4.60;;
47289;SDS011;33197;52.524;13.444;2022-10-23T03:25:25;7.78;;;4.50;;
47289;SDS011;33197;52.524;13.444;2022-10-23T03:27:52;9.52;;;6.00;;
47289;SDS011;33197;52.524;13.444;2022-10-23T03:30:19;9.55;;;5.03;;
47289;SDS011;33197;52.524;13.444;2022-10-23T03:32:46;8.35;;;4.20;;
47289;SDS011;33197;52.524;13.444;2022-10-23T03:35:13;8.30;;;4.88;;
47289;SDS011;33197;52.524;13.444;2022-10-23T03:37:40;8.45;;;4.35;;
47289;SDS011;33197;52.524;13.444;2022-10-23T03:40:08;7.68;;;5.00;;
47289;SDS011;33197;52.524;13.444;2022-10-23T03:42:36;10.20;;;5.63;;
47289;SDS011;33197;52.524;13.444;2022-10-23T03:45:03;10.98;;;5.97;;
47289;SDS011;33197;52.524;13.444;2022-10-23T03:47:30;8.80;;;5.00;;
47289;SDS011;33197;52.524;13.444;2022-10-23T03:50:00;12.30;;;5.20;;
47289;SDS011;33197;52.524;13.444;2022-10-23T03:52:27;15.48;;;6.43;;
47289;SDS011;33197;52.524;13.444;2022-10-23T03:54:55;8.40;;;5.15;;
47289;SDS011;33197;52.524;13.444;2022-10-23T03:57:22;9.23;;;5.97;;
47289;SDS011;33197;52.524;13.444;2022-10-23T03:59:49;14.48;;;7.88;;
47289;SDS011;33197;52.524;13.444;2022-10-23T04:02:17;8.48;;;5.18;;
47289;SDS011;33197;52.524;13.444;2022-10-23T04:04:44;11.30;;;5.38;;
47289;SDS011;33197;52.524;13.444;2022-10-23T04:07:11;15.85;;;6.95;;
47289;SDS011;33197;52.524;13.444;2022-10-23T04:09:39;13.00;;;7.18;;
47289;SDS011;33197;52.524;13.444;2022-10-23T04:12:06;9.50;;;6.57;;
47289;SDS011;33197;52.524;13.444;2022-10-23T04:14:33;12.50;;;6.25;;
47289;SDS011;33197;52.524;13.444;2022-10-23T04:17:00;12.02;;;6.07;;
47289;SDS011;33197;52.524;13.444;2022-10-23T04:19:27;11.65;;;5.70;;
47289;SDS011;33197;52.524;13.444;2022-10-23T04:21:54;8.13;;;5.80;;
47289;SDS011;33197;52.524;13.444;2022-10-23T04:24:23;16.20;;;7.32;;
47289;SDS011;33197;52.524;13.444;2022-10-23T04:26:51;12.55;;;6.40;;
47289;SDS011;33197;52.524;13.444;2022-10-23T04:29:18;15.20;;;7.80;;
47289;SDS011;33197;52.524;13.444;2022-10-23T04:31:48;8.95;;;5.25;;
47289;SDS011;33197;52.524;13.444;2022-10-23T04:34:16;9.82;;;5.38;;
47289;SDS011;33197;52.524;13.444;2022-10-23T04:36:43;12.38;;;5.15;;
47289;SDS011;33197;52.524;13.444;2022-10-23T04:39:10;8.27;;;5.80;;
47289;SDS011;33197;52.524;13.444;2022-10-23T04:41:38;7.88;;;5.00;;
47289;SDS011;33197;52.524;13.444;2022-10-23T04:44:06;10.23;;;5.70;;
47289;SDS011;33197;52.524;13.444;2022-10-23T04:46:33;11.43;;;6.88;;
47289;SDS011;33197;52.524;13.444;2022-10-23T04:49:00;13.30;;;5.75;;
47289;SDS011;33197;52.524;13.444;2022-10-23T04:51:27;8.73;;;6.18;;
47289;SDS011;33197;52.524;13.444;2022-10-23T04:53:54;9.57;;;5.15;;
47289;SDS011;33197;52.524;13.444;2022-10-23T04:56:21;11.75;;;6.72;;
47289;SDS011;33197;52.524;13.444;2022-10-23T04:58:48;11.98;;;6.90;;
47289;SDS011;33197;52.524;13.444;2022-10-23T05:01:16;9.52;;;6.30;;
47289;SDS011;33197;52.524;13.444;2022-10-23T05:03:43;11.93;;;5.65;;
47289;SDS011;33197;52.524;13.444;2022-10-23T05:06:10;8.93;;;5.85;;
47289;SDS011;33197;52.524;13.444;2022-10-23T05:08:37;8.18;;;5.57;;
47289;SDS011;33197;52.524;13.444;2022-10-23T05:11:04;11.35;;;5.60;;
47289;SDS011;33197;52.524;13.444;2022-10-23T05:13:31;11.25;;;7.00;;
47289;SDS011;33197;52.524;13.444;2022-10-23T05:15:58;11.20;;;7.15;;
47289;SDS011;33197;52.524;13.444;2022-10-23T05:18:37;9.35;;;5.93;;
47289;SDS011;33197;52.524;13.444;2022-10-23T05:21:19;10.73;;;6.30;;
47289;SDS011;33197;52.524;13.444;2022-10-23T05:23:48;10.25;;;6.25;;
47289;SDS011;33197;52.524;13.444;2022-10-23T05:26:15;10.13;;;6.32;;
47289;SDS011;33197;52.524;13.444;2022-10-23T05:28:42;16.05;;;6.68;;
47289;SDS011;33197;52.524;13.444;2022-10-23T05:31:09;14.07;;;7.03;;
47289;SDS011;33197;52.524;13.444;2022-10-23T05:33:36;11.85;;;6.18;;
47289;SDS011;33197;52.524;13.444;2022-10-23T05:36:04;11.05;;;6.43;;
47289;SDS011;33197;52.524;13.444;2022-10-23T05:38:31;11.35;;;6.65;;
47289;SDS011;33197;52.524;13.444;2022-10-23T05:41:00;11.90;;;6.63;;
47289;SDS011;33197;52.524;13.444;2022-10-23T05:43:27;10.60;;;7.25;;
47289;SDS011;33197;52.524;13.444;2022-10-23T05:45:57;12.13;;;7.97;;
47289;SDS011;33197;52.524;13.444;2022-10-23T05:48:24;9.60;;;6.85;;
47289;SDS011;33197;52.524;13.444;2022-10-23T05:51:07;13.43;;;7.28;;
47289;SDS011;33197;52.524;13.444;2022-10-23T05:53:35;12.98;;;7.93;;
47289;SDS011;33197;52.524;13.444;2022-10-23T05:56:08;13.68;;;7.85;;
47289;SDS011;33197;52.524;13.444;2022-10-23T05:58:35;10.98;;;7.20;;
47289;SDS011;33197;52.524;13.444;2022-10-23T06:01:09;11.32;;;7.97;;
47289;SDS011;33197;52.524;13.444;2022-10-23T06:03:37;16.20;;;8.93;;
47289;SDS011;33197;52.524;13.444;2022-10-23T06:06:07;17.10;;;8.02;;
47289;SDS011;33197;52.524;13.444;2022-10-23T06:08:34;13.60;;;7.90;;
47289;SDS011;33197;52.524;13.444;2022-10-23T06:11:05;15.02;;;7.93;;
47289;SDS011;33197;52.524;13.444;2022-10-23T06:13:36;11.93;;;7.55;;
47289;SDS011;33197;52.524;13.444;2022-10-23T06:16:12;10.88;;;7.78;;
47289;SDS011;33197;52.524;13.444;2022-10-23T06:18:40;12.50;;;6.53;;
47289;SDS011;33197;52.524;13.444;2022-10-23T06:21:08;17.98;;;7.90;;
47289;SDS011;33197;52.524;13.444;2022-10-23T06:23:36;16.83;;;7.85;;
47289;SDS011;33197;52.524;13.444;2022-10-23T06:26:05;9.90;;;6.93;;
47289;SDS011;33197;52.524;13.444;2022-10-23T06:28:33;13.13;;;7.75;;
47289;SDS011;33197;52.524;13.444;2022-10-23T06:31:04;12.18;;;7.65;;
47289;SDS011;33197;52.524;13.444;2022-10-23T06:33:31;11.07;;;6.85;;
47289;SDS011;33197;52.524;13.444;2022-10-23T06:35:59;12.15;;;5.88;;
47289;SDS011;33197;52.524;13.444;2022-10-23T06:38:26;9.82;;;6.97;;
47289;SDS011;33197;52.524;13.444;2022-10-23T06:40:53;19.67;;;7.20;;
47289;SDS011;33197;52.524;13.444;2022-10-23T06:43:22;9.10;;;6.85;;
47289;SDS011;33197;52.524;13.444;2022-10-23T06:45:50;13.05;;;8.35;;
47289;SDS011;33197;52.524;13.444;2022-10-23T06:48:17;10.45;;;6.93;;
47289;SDS011;33197;52.524;13.444;2022-10-23T06:50:44;15.23;;;6.78;;
47289;SDS011;33197;52.524;13.444;2022-10-23T06:53:11;13.38;;;7.20;;
47289;SDS011;33197;52.524;13.444;2022-10-23T06:55:38;11.63;;;8.23;;
47289;SDS011;33197;52.524;13.444;2022-10-23T06:58:06;10.60;;;6.82;;
47289;SDS011;33197;52.524;13.444;2022-10-23T07:00:36;9.38;;;7.30;;
47289;SDS011;33197;52.524;13.444;2022-10-23T07:03:04;15.73;;;7.75;;
47289;SDS011;33197;52.524;13.444;2022-10-23T07:05:32;14.55;;;7.28;;
47289;SDS011;33197;52.524;13.444;2022-10-23T07:07:59;15.35;;;8.05;;
47289;SDS011;33197;52.524;13.444;2022-10-23T07:10:26;21.08;;;7.95;;
47289;SDS011;33197;52.524;13.444;2022-10-23T07:12:53;13.07;;;7.55;;
47289;SDS011;33197;52.524;13.444;2022-10-23T07:15:26;10.18;;;7.55;;
47289;SDS011;33197;52.524;13.444;2022-10-23T07:17:54;13.07;;;7.57;;
47289;SDS011;33197;52.524;13.444;2022-10-23T07:20:21;12.23;;;7.82;;
47289;SDS011;33197;52.524;13.444;2022-10-23T07:22:51;13.45;;;6.75;;
47289;SDS011;33197;52.524;13.444;2022-10-23T07:25:21;11.20;;;7.35;;
47289;SDS011;33197;52.524;13.444;2022-10-23T07:27:50;13.43;;;6.68;;
47289;SDS011;33197;52.524;13.444;2022-10-23T07:30:18;11.40;;;8.43;;
47289;SDS011;33197;52.524;13.444;2022-10-23T07:32:45;7.93;;;7.03;;
47289;SDS011;33197;52.524;13.444;2022-10-23T07:35:12;17.33;;;9.13;;
47289;SDS011;33197;52.524;13.444;2022-10-23T07:37:40;22.13;;;8.38;;
47289;SDS011;33197;52.524;13.444;2022-10-23T07:40:08;11.85;;;7.93;;
47289;SDS011;33197;52.524;13.444;2022-10-23T07:42:35;9.95;;;6.88;;
47289;SDS011;33197;52.524;13.444;2022-10-23T07:45:03;12.32;;;7.95;;
47289;SDS011;33197;52.524;13.444;2022-10-23T07:47:32;11.50;;;7.75;;
47289;SDS011;33197;52.524;13.444;2022-10-23T07:49:59;9.32;;;6.82;;
47289;SDS011;33197;52.524;13.444;2022-10-23T07:52:26;10.15;;;7.68;;
47289;SDS011;33197;52.524;13.444;2022-10-23T07:54:59;11.80;;;7.32;;
47289;SDS011;33197;52.524;13.444;2022-10-23T07:57:26;11.05;;;6.88;;
47289;SDS011;33197;52.524;13.444;2022-10-23T07:59:53;15.63;;;7.90;;
47289;SDS011;33197;52.524;13.444;2022-10-23T08:02:20;9.85;;;8.00;;
47289;SDS011;33197;52.524;13.444;2022-10-23T08:04:48;11.85;;;7.85;;
47289;SDS011;33197;52.524;13.444;2022-10-23T08:07:15;12.40;;;7.40;;
47289;SDS011;33197;52.524;13.444;2022-10-23T08:09:42;11.90;;;7.60;;
47289;SDS011;33197;52.524;13.444;2022-10-23T08:12:10;9.88;;;7.18;;
47289;SDS011;33197;52.524;13.444;2022-10-23T08:14:37;16.63;;;7.90;;
47289;SDS011;33197;52.524;13.444;2022-10-23T08:17:04;11.57;;;7.85;;
47289;SDS011;33197;52.524;13.444;2022-10-23T08:19:35;11.07;;;7.60;;
47289;SDS011;33197;52.524;13.444;2022-10-23T08:22:02;9.70;;;6.57;;
47289;SDS011;33197;52.524;13.444;2022-10-23T08:24:29;16.75;;;8.13;;
47289;SDS011;33197;52.524;13.444;2022-10-23T08:26:56;8.40;;;6.30;;
47289;SDS011;33197;52.524;13.444;2022-10-23T08:29:24;13.75;;;6.65;;
47289;SDS011;33197;52.524;13.444;2022-10-23T08:31:52;9.27;;;7.20;;
47289;SDS011;33197;52.524;13.444;2022-10-23T08:34:22;12.40;;;5.75;;
47289;SDS011;33197;52.524;13.444;2022-10-23T08:36:49;12.30;;;7.88;;
47289;SDS011;33197;52.524;13.444;2022-10-23T08:39:16;10.30;;;6.80;;
47289;SDS011;33197;52.524;13.444;2022-10-23T08:41:47;9.40;;;6.18;;
47289;SDS011;33197;52.524;13.444;2022-10-23T08:52:36;15.73;;;6.95;;
47289;SDS011;33197;52.524;13.444;2022-10-23T08:55:14;14.60;;;5.68;;
47289;SDS011;33197;52.524;13.444;2022-10-23T08:57:46;12.93;;;5.82;;
47289;SDS011;33197;52.524;13.444;2022-10-23T09:00:19;11.25;;;5.63;;
47289;SDS011;33197;52.524;13.444;2022-10-23T09:02:47;14.35;;;6.10;;
47289;SDS011;33197;52.524;13.444;2022-10-23T09:05:18;8.95;;;5.50;;
47289;SDS011;33197;52.524;13.444;2022-10-23T09:10:48;11.23;;;4.75;;
47289;SDS011;33197;52.524;13.444;2022-10-23T09:16:03;8.15;;;4.43;;
47289;SDS011;33197;52.524;13.444;2022-10-23T09:18:41;9.13;;;5.15;;
47289;SDS011;33197;52.524;13.444;2022-10-23T09:21:08;7.40;;;4.38;;
47289;SDS011;33197;52.524;13.444;2022-10-23T09:23:36;12.10;;;4.85;;
47289;SDS011;33197;52.524;13.444;2022-10-23T09:26:09;9.95;;;4.93;;
47289;SDS011;33197;52.524;13.444;2022-10-23T09:28:47;11.52;;;5.50;;
47289;SDS011;33197;52.524;13.444;2022-10-23T09:31:20;11.55;;;5.30;;
47289;SDS011;33197;52.524;13.444;2022-10-23T09:33:55;9.88;;;4.55;;
47289;SDS011;33197;52.524;13.444;2022-10-23T09:36:24;7.03;;;4.60;;
47289;SDS011;33197;52.524;13.444;2022-10-23T09:38:54;12.98;;;4.97;;
47289;SDS011;33197;52.524;13.444;2022-10-23T09:41:24;9.40;;;4.30;;
47289;SDS011;33197;52.524;13.444;2022-10-23T09:46:43;8.52;;;4.07;;
47289;SDS011;33197;52.524;13.444;2022-10-23T09:49:28;8.75;;;4.53;;
47289;SDS011;33197;52.524;13.444;2022-10-23T09:52:00;7.22;;;3.60;;
47289;SDS011;33197;52.524;13.444;2022-10-23T09:54:32;11.07;;;3.25;;
47289;SDS011;33197;52.524;13.444;2022-10-23T09:57:05;9.63;;;3.78;;
47289;SDS011;33197;52.524;13.444;2022-10-23T09:59:55;11.30;;;4.45;;
47289;SDS011;33197;52.524;13.444;2022-10-23T10:02:30;15.57;;;3.60;;
47289;SDS011;33197;52.524;13.444;2022-10-23T10:04:58;10.30;;;3.67;;
47289;SDS011;33197;52.524;13.444;2022-10-23T10:07:26;7.00;;;3.15;;
47289;SDS011;33197;52.524;13.444;2022-10-23T10:09:59;7.05;;;3.33;;
47289;SDS011;33197;52.524;13.444;2022-10-23T10:12:30;9.13;;;3.40;;
47289;SDS011;33197;52.524;13.444;2022-10-23T10:22:41;5.93;;;2.58;;
47289;SDS011;33197;52.524;13.444;2022-10-23T10:28:06;11.85;;;3.53;;
47289;SDS011;33197;52.524;13.444;2022-10-23T10:38:53;13.75;;;3.67;;
47289;SDS011;33197;52.524;13.444;2022-10-23T10:41:31;8.10;;;2.63;;
47289;SDS011;33197;52.524;13.444;2022-10-23T10:44:13;6.10;;;2.28;;
47289;SDS011;33197;52.524;13.444;2022-10-23T10:46:45;6.63;;;2.97;;
47289;SDS011;33197;52.524;13.444;2022-10-23T10:49:26;9.38;;;3.20;;
47289;SDS011;33197;52.524;13.444;2022-10-23T10:54:39;14.07;;;3.40;;
47289;SDS011;33197;52.524;13.444;2022-10-23T10:57:15;9.70;;;2.85;;
47289;SDS011;33197;52.524;13.444;2022-10-23T10:59:56;4.32;;;2.53;;
47289;SDS011;33197;52.524;13.444;2022-10-23T11:02:29;6.97;;;3.10;;
47289;SDS011;33197;52.524;13.444;2022-10-23T11:05:21;13.50;;;3.85;;
47289;SDS011;33197;52.524;13.444;2022-10-23T11:07:54;10.18;;;3.53;;
47289;SDS011;33197;52.524;13.444;2022-10-23T11:10:44;7.07;;;3.05;;
47289;SDS011;33197;52.524;13.444;2022-10-23T11:13:24;7.25;;;2.95;;
47289;SDS011;33197;52.524;13.444;2022-10-23T11:15:57;7.47;;;3.53;;
47289;SDS011;33197;52.524;13.444;2022-10-23T11:18:27;7.55;;;3.38;;
47289;SDS011;33197;52.524;13.444;2022-10-23T11:20:58;9.60;;;3.67;;
47289;SDS011;33197;52.524;13.444;2022-10-23T11:26:18;6.22;;;4.00;;
47289;SDS011;33197;52.524;13.444;2022-10-23T11:32:04;7.72;;;3.45;;
47289;SDS011;33197;52.524;13.444;2022-10-23T11:34:47;10.20;;;4.45;;
47289;SDS011;33197;52.524;13.444;2022-10-23T11:37:30;7.90;;;3.40;;
47289;SDS011;33197;52.524;13.444;2022-10-23T11:47:56;9.43;;;2.75;;
47289;SDS011;33197;52.524;13.444;2022-10-23T11:50:26;9.98;;;3.30;;
47289;SDS011;33197;52.524;13.444;2022-10-23T11:53:04;8.90;;;2.47;;
47289;SDS011;33197;52.524;13.444;2022-10-23T11:55:55;9.13;;;3.28;;
47289;SDS011;33197;52.524;13.444;2022-10-23T11:58:50;6.88;;;2.15;;
47289;SDS011;33197;52.524;13.444;2022-10-23T12:01:33;8.88;;;2.88;;
47289;SDS011;33197;52.524;13.444;2022-10-23T12:04:25;5.97;;;2.60;;
47289;SDS011;33197;52.524;13.444;2022-10-23T12:07:00;10.68;;;2.97;;
47289;SDS011;33197;52.524;13.444;2022-10-23T12:09:32;5.05;;;1.98;;
47289;SDS011;33197;52.524;13.444;2022-10-23T12:17:00;5.20;;;1.83;;
47289;SDS011;33197;52.524;13.444;2022-10-23T12:19:28;6.72;;;2.65;;
47289;SDS011;33197;52.524;13.444;2022-10-23T12:21:57;21.00;;;2.75;;
47289;SDS011;33197;52.524;13.444;2022-10-23T12:27:25;5.55;;;2.47;;
47289;SDS011;33197;52.524;13.444;2022-10-23T12:35:27;4.90;;;1.83;;
47289;SDS011;33197;52.524;13.444;2022-10-23T12:38:09;7.70;;;2.33;;
47289;SDS011;33197;52.524;13.444;2022-10-23T12:40:43;5.97;;;2.20;;
47289;SDS011;33197;52.524;13.444;2022-10-23T12:43:27;4.88;;;1.90;;
47289;SDS011;33197;52.524;13.444;2022-10-23T12:48:58;5.00;;;1.92;;
47289;SDS011;33197;52.524;13.444;2022-10-23T12:51:33;7.38;;;2.10;;
47289;SDS011;33197;52.524;13.444;2022-10-23T12:54:01;7.13;;;2.15;;
47289;SDS011;33197;52.524;13.444;2022-10-23T12:56:33;7.30;;;2.28;;
47289;SDS011;33197;52.524;13.444;2022-10-23T12:59:01;5.50;;;2.28;;
47289;SDS011;33197;52.524;13.444;2022-10-23T13:01:30;5.07;;;2.22;;
47289;SDS011;33197;52.524;13.444;2022-10-23T13:04:12;5.90;;;2.20;;
47289;SDS011;33197;52.524;13.444;2022-10-23T13:06:46;6.63;;;2.00;;
47289;SDS011;33197;52.524;13.444;2022-10-23T13:09:18;8.00;;;2.45;;
47289;SDS011;33197;52.524;13.444;2022-10-23T13:11:49;7.35;;;2.40;;
47289;SDS011;33197;52.524;13.444;2022-10-23T13:14:30;6.15;;;1.83;;
47289;SDS011;33197;52.524;13.444;2022-10-23T13:17:08;5.32;;;2.00;;
47289;SDS011;33197;52.524;13.444;2022-10-23T13:19:36;8.77;;;2.05;;
47289;SDS011;33197;52.524;13.444;2022-10-23T13:22:12;4.25;;;2.05;;
47289;SDS011;33197;52.524;13.444;2022-10-23T13:24:42;8.48;;;2.45;;
47289;SDS011;33197;52.524;13.444;2022-10-23T13:27:22;5.80;;;2.67;;
47289;SDS011;33197;52.524;13.444;2022-10-23T13:29:59;9.35;;;2.22;;
47289;SDS011;33197;52.524;13.444;2022-10-23T13:32:28;7.68;;;2.00;;
47289;SDS011;33197;52.524;13.444;2022-10-23T13:34:56;6.38;;;1.80;;
47289;SDS011;33197;52.524;13.444;2022-10-23T13:37:47;6.68;;;2.70;;
47289;SDS011;33197;52.524;13.444;2022-10-23T13:40:19;4.22;;;2.10;;
47289;SDS011;33197;52.524;13.444;2022-10-23T13:42:50;5.13;;;2.33;;
47289;SDS011;33197;52.524;13.444;2022-10-23T13:45:19;6.53;;;2.45;;
47289;SDS011;33197;52.524;13.444;2022-10-23T13:47:48;6.40;;;2.00;;
47289;SDS011;33197;52.524;13.444;2022-10-23T13:50:16;6.50;;;2.03;;
47289;SDS011;33197;52.524;13.444;2022-10-23T13:52:43;3.33;;;1.75;;
47289;SDS011;33197;52.524;13.444;2022-10-23T13:55:23;5.82;;;1.92;;
47289;SDS011;33197;52.524;13.444;2022-10-23T13:57:51;6.57;;;2.42;;
47289;SDS011;33197;52.524;13.444;2022-10-23T14:00:18;10.27;;;1.63;;
47289;SDS011;33197;52.524;13.444;2022-10-23T14:02:45;10.77;;;2.63;;
47289;SDS011;33197;52.524;13.444;2022-10-23T14:05:12;3.40;;;1.35;;
47289;SDS011;33197;52.524;13.444;2022-10-23T14:07:39;4.38;;;1.50;;
47289;SDS011;33197;52.524;13.444;2022-10-23T14:10:07;5.30;;;2.00;;
47289;SDS011;33197;52.524;13.444;2022-10-23T14:12:38;7.13;;;1.85;;
47289;SDS011;33197;52.524;13.444;2022-10-23T14:15:09;5.93;;;2.05;;
47289;SDS011;33197;52.524;13.444;2022-10-23T14:17:37;14.82;;;3.05;;
47289;SDS011;33197;52.524;13.444;2022-10-23T14:20:04;4.03;;;1.90;;
47289;SDS011;33197;52.524;13.444;2022-10-23T14:22:32;8.98;;;2.65;;
47289;SDS011;33197;52.524;13.444;2022-10-23T14:24:59;8.93;;;2.92;;
47289;SDS011;33197;52.524;13.444;2022-10-23T14:27:26;6.07;;;1.70;;
47289;SDS011;33197;52.524;13.444;2022-10-23T14:29:55;3.92;;;2.05;;
47289;SDS011;33197;52.524;13.444;2022-10-23T14:32:22;4.43;;;1.83;;
47289;SDS011;33197;52.524;13.444;2022-10-23T14:34:50;3.60;;;1.73;;
47289;SDS011;33197;52.524;13.444;2022-10-23T14:37:19;6.25;;;2.05;;
47289;SDS011;33197;52.524;13.444;2022-10-23T14:39:47;7.60;;;2.22;;
47289;SDS011;33197;52.524;13.444;2022-10-23T14:42:16;6.65;;;2.35;;
47289;SDS011;33197;52.524;13.444;2022-10-23T14:44:43;5.13;;;2.00;;
47289;SDS011;33197;52.524;13.444;2022-10-23T14:47:11;6.80;;;2.78;;
47289;SDS011;33197;52.524;13.444;2022-10-23T14:49:38;8.30;;;2.22;;
47289;SDS011;33197;52.524;13.444;2022-10-23T14:52:06;7.63;;;2.15;;
47289;SDS011;33197;52.524;13.444;2022-10-23T14:54:33;13.48;;;2.88;;
47289;SDS011;33197;52.524;13.444;2022-10-23T14:57:02;7.97;;;2.45;;
47289;SDS011;33197;52.524;13.444;2022-10-23T14:59:29;8.60;;;3.15;;
47289;SDS011;33197;52.524;13.444;2022-10-23T15:01:56;5.82;;;2.60;;
47289;SDS011;33197;52.524;13.444;2022-10-23T15:04:23;5.32;;;2.28;;
47289;SDS011;33197;52.524;13.444;2022-10-23T15:06:50;7.35;;;2.85;;
47289;SDS011;33197;52.524;13.444;2022-10-23T15:09:18;8.57;;;2.83;;
47289;SDS011;33197;52.524;13.444;2022-10-23T15:11:46;4.60;;;2.08;;
47289;SDS011;33197;52.524;13.444;2022-10-23T15:14:13;6.78;;;2.45;;
47289;SDS011;33197;52.524;13.444;2022-10-23T15:16:41;6.22;;;2.40;;
47289;SDS011;33197;52.524;13.444;2022-10-23T15:19:12;7.38;;;2.50;;
47289;SDS011;33197;52.524;13.444;2022-10-23T15:21:47;7.20;;;2.50;;
47289;SDS011;33197;52.524;13.444;2022-10-23T15:24:15;10.05;;;3.05;;
47289;SDS011;33197;52.524;13.444;2022-10-23T15:26:42;7.50;;;2.50;;
47289;SDS011;33197;52.524;13.444;2022-10-23T15:29:10;6.55;;;2.95;;
47289;SDS011;33197;52.524;13.444;2022-10-23T15:34:12;7.43;;;2.83;;
47289;SDS011;33197;52.524;13.444;2022-10-23T15:36:44;6.15;;;2.88;;
47289;SDS011;33197;52.524;13.444;2022-10-23T15:39:14;9.02;;;3.22;;
47289;SDS011;33197;52.524;13.444;2022-10-23T15:41:43;5.68;;;2.70;;
47289;SDS011;33197;52.524;13.444;2022-10-23T15:44:11;7.32;;;2.72;;
47289;SDS011;33197;52.524;13.444;2022-10-23T15:46:40;5.90;;;3.08;;
47289;SDS011;33197;52.524;13.444;2022-10-23T15:49:08;10.45;;;3.13;;
47289;SDS011;33197;52.524;13.444;2022-10-23T15:51:35;10.10;;;3.85;;
47289;SDS011;33197;52.524;13.444;2022-10-23T15:54:04;6.05;;;2.55;;
47289;SDS011;33197;52.524;13.444;2022-10-23T15:56:32;12.65;;;2.95;;
47289;SDS011;33197;52.524;13.444;2022-10-23T15:59:00;8.93;;;2.88;;
47289;SDS011;33197;52.524;13.444;2022-10-23T16:01:28;9.27;;;3.17;;
47289;SDS011;33197;52.524;13.444;2022-10-23T16:03:55;9.63;;;3.05;;
47289;SDS011;33197;52.524;13.444;2022-10-23T16:06:22;5.40;;;2.88;;
47289;SDS011;33197;52.524;13.444;2022-10-23T16:08:49;9.25;;;2.70;;
47289;SDS011;33197;52.524;13.444;2022-10-23T16:11:21;8.73;;;3.63;;
47289;SDS011;33197;52.524;13.444;2022-10-23T16:13:50;9.73;;;3.30;;
47289;SDS011;33197;52.524;13.444;2022-10-23T16:16:17;13.02;;;3.25;;
47289;SDS011;33197;52.524;13.444;2022-10-23T16:18:44;8.30;;;2.78;;
47289;SDS011;33197;52.524;13.444;2022-10-23T16:21:16;20.33;;;4.10;;
47289;SDS011;33197;52.524;13.444;2022-10-23T16:23:44;7.45;;;3.00;;